sensor_id;sensor_type;location;lat;lon;timestamp;temperature;humidity
31819;DHT22;18384;48.860;9.188;2023-04-01T00:01:01;9.90;99.90
31819;DHT22;18384;48.860;9.188;2023-04-01T00:03:29;9.80;99.90
31819;DHT22;18384;48.860;9.188;2023-04-01T00:05:59;9.80;99.90
31819;DHT22;18384;48.860;9.188;2023-04-01T00:08:25;9.80;99.90
31819;DHT22;18384;48.860;9.188;2023-04-01T00:10:52;9.80;99.90
31819;DHT22;18384;48.860;9.188;2023-04-01T00:13:19;9.80;99.90
31819;DHT22;18384;48.860;9.188;2023-04-01T00:15:45;9.80;99.90
31819;DHT22;18384;48.860;9.188;2023-04-01T00:18:11;9.80;99.90
31819;DHT22;18384;48.860;9.188;2023-04-01T00:20:43;9.80;99.90
31819;DHT22;18384;48.860;9.188;2023-04-01T00:23:14;9.90;99.90
31819;DHT22;18384;48.860;9.188;2023-04-01T00:26:00;9.90;99.90
31819;DHT22;18384;48.860;9.188;2023-04-01T00:28:27;9.90;99.90
31819;DHT22;18384;48.860;9.188;2023-04-01T00:30:54;9.90;99.90
31819;DHT22;18384;48.860;9.188;2023-04-01T00:33:20;9.90;99.90
31819;DHT22;18384;48.860;9.188;2023-04-01T00:35:46;9.90;99.90
31819;DHT22;18384;48.860;9.188;2023-04-01T00:38:13;9.90;99.90
31819;DHT22;18384;48.860;9.188;2023-04-01T00:40:41;9.90;99.90
31819;DHT22;18384;48.860;9.188;2023-04-01T00:43:17;9.90;99.90
31819;DHT22;18384;48.860;9.188;2023-04-01T00:45:48;9.90;99.90
31819;DHT22;18384;48.860;9.188;2023-04-01T00:48:22;10.00;99.90
31819;DHT22;18384;48.860;9.188;2023-04-01T00:51:02;9.90;99.90
31819;DHT22;18384;48.860;9.188;2023-04-01T00:53:38;10.00;99.90
31819;DHT22;18384;48.860;9.188;2023-04-01T00:56:24;10.10;99.90
31819;DHT22;18384;48.860;9.188;2023-04-01T00:59:02;10.10;99.90
31819;DHT22;18384;48.860;9.188;2023-04-01T01:01:35;10.20;99.90
31819;DHT22;18384;48.860;9.188;2023-04-01T01:04:01;10.20;99.90
31819;DHT22;18384;48.860;9.188;2023-04-01T01:06:48;10.20;99.90
31819;DHT22;18384;48.860;9.188;2023-04-01T01:12:50;10.10;99.90
31819;DHT22;18384;48.860;9.188;2023-04-01T01:16:24;10.00;99.90
31819;DHT22;18384;48.860;9.188;2023-04-01T01:19:30;10.00;99.90
31819;DHT22;18384;48.860;9.188;2023-04-01T01:32:59;10.00;99.90
31819;DHT22;18384;48.860;9.188;2023-04-01T01:38:38;10.10;99.90
31819;DHT22;18384;48.860;9.188;2023-04-01T01:41:06;10.10;99.90
31819;DHT22;18384;48.860;9.188;2023-04-01T01:43:46;10.20;99.90
31819;DHT22;18384;48.860;9.188;2023-04-01T01:46:17;10.10;99.90
31819;DHT22;18384;48.860;9.188;2023-04-01T01:48:46;10.20;99.90
31819;DHT22;18384;48.860;9.188;2023-04-01T01:51:13;10.10;99.90
31819;DHT22;18384;48.860;9.188;2023-04-01T01:53:39;10.10;99.90
31819;DHT22;18384;48.860;9.188;2023-04-01T01:56:06;10.20;99.90
31819;DHT22;18384;48.860;9.188;2023-04-01T01:58:47;10.20;99.90
31819;DHT22;18384;48.860;9.188;2023-04-01T02:01:19;10.00;99.90
31819;DHT22;18384;48.860;9.188;2023-04-01T02:03:48;9.40;99.90
31819;DHT22;18384;48.860;9.188;2023-04-01T02:06:20;9.90;99.90
31819;DHT22;18384;48.860;9.188;2023-04-01T02:09:00;10.00;99.90
31819;DHT22;18384;48.860;9.188;2023-04-01T02:11:37;10.00;99.90
31819;DHT22;18384;48.860;9.188;2023-04-01T02:15:31;9.90;99.90
31819;DHT22;18384;48.860;9.188;2023-04-01T02:17:59;10.00;99.90
31819;DHT22;18384;48.860;9.188;2023-04-01T02:20:28;9.90;99.90
31819;DHT22;18384;48.860;9.188;2023-04-01T02:22:56;9.20;99.90
31819;DHT22;18384;48.860;9.188;2023-04-01T02:25:30;9.90;99.90
31819;DHT22;18384;48.860;9.188;2023-04-01T02:28:01;9.80;99.90
31819;DHT22;18384;48.860;9.188;2023-04-01T02:30:35;9.90;99.90
31819;DHT22;18384;48.860;9.188;2023-04-01T02:33:04;9.80;99.90
31819;DHT22;18384;48.860;9.188;2023-04-01T02:35:34;9.80;99.90
31819;DHT22;18384;48.860;9.188;2023-04-01T02:38:02;9.90;99.90
31819;DHT22;18384;48.860;9.188;2023-04-01T02:40:28;9.90;99.90
31819;DHT22;18384;48.860;9.188;2023-04-01T02:42:54;9.80;99.90
31819;DHT22;18384;48.860;9.188;2023-04-01T02:45:20;9.80;99.90
31819;DHT22;18384;48.860;9.188;2023-04-01T02:47:46;9.70;99.90
31819;DHT22;18384;48.860;9.188;2023-04-01T02:50:13;9.70;99.90
31819;DHT22;18384;48.860;9.188;2023-04-01T02:52:39;9.70;99.90
31819;DHT22;18384;48.860;9.188;2023-04-01T02:55:05;9.70;99.90
31819;DHT22;18384;48.860;9.188;2023-04-01T02:57:32;9.70;99.90
31819;DHT22;18384;48.860;9.188;2023-04-01T02:59:58;9.70;99.90
31819;DHT22;18384;48.860;9.188;2023-04-01T03:02:24;9.80;99.90
31819;DHT22;18384;48.860;9.188;2023-04-01T03:04:50;9.80;99.90
31819;DHT22;18384;48.860;9.188;2023-04-01T03:07:16;9.70;99.90
31819;DHT22;18384;48.860;9.188;2023-04-01T03:09:42;9.70;99.90
31819;DHT22;18384;48.860;9.188;2023-04-01T03:12:09;9.70;99.90
31819;DHT22;18384;48.860;9.188;2023-04-01T03:14:35;9.80;99.90
31819;DHT22;18384;48.860;9.188;2023-04-01T03:17:01;9.70;99.90
31819;DHT22;18384;48.860;9.188;2023-04-01T03:19:27;9.70;99.90
31819;DHT22;18384;48.860;9.188;2023-04-01T03:21:53;9.70;99.90
31819;DHT22;18384;48.860;9.188;2023-04-01T03:24:20;9.80;99.90
31819;DHT22;18384;48.860;9.188;2023-04-01T03:26:46;9.70;99.90
31819;DHT22;18384;48.860;9.188;2023-04-01T03:29:12;9.70;99.90
31819;DHT22;18384;48.860;9.188;2023-04-01T03:31:41;9.70;99.90
31819;DHT22;18384;48.860;9.188;2023-04-01T03:34:07;9.70;99.90
31819;DHT22;18384;48.860;9.188;2023-04-01T03:36:33;9.70;99.90
31819;DHT22;18384;48.860;9.188;2023-04-01T03:38:59;9.60;99.90
31819;DHT22;18384;48.860;9.188;2023-04-01T03:41:25;9.60;99.90
31819;DHT22;18384;48.860;9.188;2023-04-01T03:43:53;9.60;99.90
31819;DHT22;18384;48.860;9.188;2023-04-01T03:46:20;9.50;99.90
31819;DHT22;18384;48.860;9.188;2023-04-01T03:48:46;9.50;99.90
31819;DHT22;18384;48.860;9.188;2023-04-01T03:51:12;9.40;99.90
31819;DHT22;18384;48.860;9.188;2023-04-01T03:53:38;9.40;99.90
31819;DHT22;18384;48.860;9.188;2023-04-01T03:56:05;9.30;99.90
31819;DHT22;18384;48.860;9.188;2023-04-01T03:58:32;9.30;99.90
31819;DHT22;18384;48.860;9.188;2023-04-01T04:00:58;9.30;99.90
31819;DHT22;18384;48.860;9.188;2023-04-01T04:03:25;9.40;99.90
31819;DHT22;18384;48.860;9.188;2023-04-01T04:05:51;9.30;99.90
31819;DHT22;18384;48.860;9.188;2023-04-01T04:08:18;9.20;99.90
31819;DHT22;18384;48.860;9.188;2023-04-01T04:10:44;9.20;99.90
31819;DHT22;18384;48.860;9.188;2023-04-01T04:13:11;9.20;99.90
31819;DHT22;18384;48.860;9.188;2023-04-01T04:15:38;9.20;99.90
31819;DHT22;18384;48.860;9.188;2023-04-01T04:18:04;9.30;99.90
31819;DHT22;18384;48.860;9.188;2023-04-01T04:20:31;9.30;99.90
31819;DHT22;18384;48.860;9.188;2023-04-01T04:22:57;9.30;99.90
31819;DHT22;18384;48.860;9.188;2023-04-01T04:25:23;9.30;99.90
31819;DHT22;18384;48.860;9.188;2023-04-01T04:27:49;9.30;99.90
31819;DHT22;18384;48.860;9.188;2023-04-01T04:30:15;9.30;99.90
31819;DHT22;18384;48.860;9.188;2023-04-01T04:32:42;9.30;99.90
31819;DHT22;18384;48.860;9.188;2023-04-01T04:35:08;9.30;99.90
31819;DHT22;18384;48.860;9.188;2023-04-01T04:37:34;9.20;99.90
31819;DHT22;18384;48.860;9.188;2023-04-01T04:40:00;9.20;99.90
31819;DHT22;18384;48.860;9.188;2023-04-01T04:42:26;9.10;99.90
31819;DHT22;18384;48.860;9.188;2023-04-01T04:44:53;9.30;99.90
31819;DHT22;18384;48.860;9.188;2023-04-01T04:47:19;9.30;99.90
31819;DHT22;18384;48.860;9.188;2023-04-01T04:49:45;9.30;99.90
31819;DHT22;18384;48.860;9.188;2023-04-01T04:52:11;9.30;99.90
31819;DHT22;18384;48.860;9.188;2023-04-01T04:54:37;9.30;99.90
31819;DHT22;18384;48.860;9.188;2023-04-01T04:57:04;9.30;99.90
31819;DHT22;18384;48.860;9.188;2023-04-01T04:59:30;9.20;99.90
31819;DHT22;18384;48.860;9.188;2023-04-01T05:01:56;9.20;99.90
31819;DHT22;18384;48.860;9.188;2023-04-01T05:04:23;9.10;99.90
31819;DHT22;18384;48.860;9.188;2023-04-01T05:06:49;9.10;99.90
31819;DHT22;18384;48.860;9.188;2023-04-01T05:09:15;9.10;99.90
31819;DHT22;18384;48.860;9.188;2023-04-01T05:11:41;9.20;99.90
31819;DHT22;18384;48.860;9.188;2023-04-01T05:14:12;9.10;99.90
31819;DHT22;18384;48.860;9.188;2023-04-01T05:16:40;9.20;99.90
31819;DHT22;18384;48.860;9.188;2023-04-01T05:19:06;9.20;99.90
31819;DHT22;18384;48.860;9.188;2023-04-01T05:21:32;9.20;99.90
31819;DHT22;18384;48.860;9.188;2023-04-01T05:23:58;9.20;99.90
31819;DHT22;18384;48.860;9.188;2023-04-01T05:26:24;9.20;99.90
31819;DHT22;18384;48.860;9.188;2023-04-01T05:28:50;9.30;99.90
31819;DHT22;18384;48.860;9.188;2023-04-01T05:31:17;9.30;99.90
31819;DHT22;18384;48.860;9.188;2023-04-01T05:33:43;9.40;99.90
31819;DHT22;18384;48.860;9.188;2023-04-01T05:36:10;9.50;99.90
31819;DHT22;18384;48.860;9.188;2023-04-01T05:38:38;9.60;99.90
31819;DHT22;18384;48.860;9.188;2023-04-01T05:41:04;9.70;99.90
31819;DHT22;18384;48.860;9.188;2023-04-01T05:43:31;9.70;99.90
31819;DHT22;18384;48.860;9.188;2023-04-01T05:45:58;9.70;99.90
31819;DHT22;18384;48.860;9.188;2023-04-01T05:48:24;9.70;99.90
31819;DHT22;18384;48.860;9.188;2023-04-01T05:50:50;9.70;99.90
31819;DHT22;18384;48.860;9.188;2023-04-01T05:53:16;9.80;99.90
31819;DHT22;18384;48.860;9.188;2023-04-01T05:55:42;9.90;99.90
31819;DHT22;18384;48.860;9.188;2023-04-01T05:58:08;9.90;99.90
31819;DHT22;18384;48.860;9.188;2023-04-01T06:00:34;9.90;99.90
31819;DHT22;18384;48.860;9.188;2023-04-01T06:03:00;9.90;99.90
31819;DHT22;18384;48.860;9.188;2023-04-01T06:05:42;9.90;99.90
31819;DHT22;18384;48.860;9.188;2023-04-01T06:08:14;9.90;99.90
31819;DHT22;18384;48.860;9.188;2023-04-01T06:14:29;9.90;99.90
31819;DHT22;18384;48.860;9.188;2023-04-01T06:20:38;10.10;99.90
31819;DHT22;18384;48.860;9.188;2023-04-01T06:41:21;10.40;99.40
31819;DHT22;18384;48.860;9.188;2023-04-01T06:45:38;10.50;99.50
31819;DHT22;18384;48.860;9.188;2023-04-01T06:54:01;10.50;99.10
31819;DHT22;18384;48.860;9.188;2023-04-01T06:56:32;10.60;99.10
31819;DHT22;18384;48.860;9.188;2023-04-01T06:59:20;10.50;99.00
31819;DHT22;18384;48.860;9.188;2023-04-01T07:01:58;10.60;99.30
31819;DHT22;18384;48.860;9.188;2023-04-01T07:21:04;10.70;99.10
31819;DHT22;18384;48.860;9.188;2023-04-01T07:23:42;10.80;99.20
31819;DHT22;18384;48.860;9.188;2023-04-01T07:26:20;10.80;99.10
31819;DHT22;18384;48.860;9.188;2023-04-01T07:28:50;10.70;98.90
31819;DHT22;18384;48.860;9.188;2023-04-01T07:31:49;10.80;98.90
31819;DHT22;18384;48.860;9.188;2023-04-01T07:41:23;10.70;98.70
31819;DHT22;18384;48.860;9.188;2023-04-01T07:46:03;10.60;99.30
31819;DHT22;18384;48.860;9.188;2023-04-01T07:49:36;10.70;99.10
31819;DHT22;18384;48.860;9.188;2023-04-01T07:52:48;10.70;99.30
31819;DHT22;18384;48.860;9.188;2023-04-01T07:55:51;10.60;99.10
31819;DHT22;18384;48.860;9.188;2023-04-01T08:00:09;10.70;99.40
31819;DHT22;18384;48.860;9.188;2023-04-01T08:03:11;10.90;99.30
31819;DHT22;18384;48.860;9.188;2023-04-01T08:06:00;11.10;98.90
31819;DHT22;18384;48.860;9.188;2023-04-01T08:08:54;11.20;98.70
31819;DHT22;18384;48.860;9.188;2023-04-01T08:27:37;11.50;98.60
31819;DHT22;18384;48.860;9.188;2023-04-01T08:30:25;11.60;98.70
31819;DHT22;18384;48.860;9.188;2023-04-01T08:33:01;11.50;98.70
31819;DHT22;18384;48.860;9.188;2023-04-01T08:35:51;11.50;99.00
31819;DHT22;18384;48.860;9.188;2023-04-01T08:41:50;11.50;99.10
31819;DHT22;18384;48.860;9.188;2023-04-01T08:48:13;11.30;99.90
31819;DHT22;18384;48.860;9.188;2023-04-01T08:51:27;11.30;99.90
31819;DHT22;18384;48.860;9.188;2023-04-01T09:01:03;11.00;99.90
31819;DHT22;18384;48.860;9.188;2023-04-01T09:04:03;10.80;99.90
31819;DHT22;18384;48.860;9.188;2023-04-01T09:17:01;10.60;99.90
31819;DHT22;18384;48.860;9.188;2023-04-01T09:27:14;11.00;99.90
31819;DHT22;18384;48.860;9.188;2023-04-01T09:36:46;11.40;99.90
31819;DHT22;18384;48.860;9.188;2023-04-01T09:40:08;11.60;99.90
31819;DHT22;18384;48.860;9.188;2023-04-01T09:43:25;11.70;99.90
31819;DHT22;18384;48.860;9.188;2023-04-01T09:49:13;11.50;99.60
31819;DHT22;18384;48.860;9.188;2023-04-01T09:52:43;11.40;99.30
31819;DHT22;18384;48.860;9.188;2023-04-01T10:01:53;11.40;98.90
31819;DHT22;18384;48.860;9.188;2023-04-01T10:05:33;11.50;99.20
31819;DHT22;18384;48.860;9.188;2023-04-01T10:11:22;11.50;98.80
31819;DHT22;18384;48.860;9.188;2023-04-01T10:20:46;11.50;98.50
31819;DHT22;18384;48.860;9.188;2023-04-01T10:26:14;11.70;97.60
31819;DHT22;18384;48.860;9.188;2023-04-01T10:29:11;11.80;98.30
31819;DHT22;18384;48.860;9.188;2023-04-01T10:39:11;11.80;97.40
31819;DHT22;18384;48.860;9.188;2023-04-01T10:42:34;11.80;97.50
31819;DHT22;18384;48.860;9.188;2023-04-01T10:49:00;11.90;97.80
31819;DHT22;18384;48.860;9.188;2023-04-01T10:52:20;11.70;97.90
31819;DHT22;18384;48.860;9.188;2023-04-01T11:09:41;11.60;97.80
31819;DHT22;18384;48.860;9.188;2023-04-01T11:12:46;11.90;97.70
31819;DHT22;18384;48.860;9.188;2023-04-01T11:16:47;11.90;97.50
31819;DHT22;18384;48.860;9.188;2023-04-01T11:20:15;11.80;97.30
31819;DHT22;18384;48.860;9.188;2023-04-01T11:29:16;12.00;96.90
31819;DHT22;18384;48.860;9.188;2023-04-01T11:33:08;11.90;96.80
31819;DHT22;18384;48.860;9.188;2023-04-01T11:36:07;12.00;97.10
31819;DHT22;18384;48.860;9.188;2023-04-01T11:49:59;12.60;96.10
31819;DHT22;18384;48.860;9.188;2023-04-01T11:59:31;12.60;96.00
31819;DHT22;18384;48.860;9.188;2023-04-01T12:05:43;12.70;96.40
31819;DHT22;18384;48.860;9.188;2023-04-01T12:13:40;12.90;96.60
31819;DHT22;18384;48.860;9.188;2023-04-01T12:16:41;12.70;96.00
31819;DHT22;18384;48.860;9.188;2023-04-01T12:34:53;13.20;96.00
31819;DHT22;18384;48.860;9.188;2023-04-01T12:37:47;13.20;96.00
31819;DHT22;18384;48.860;9.188;2023-04-01T13:02:07;12.90;95.20
31819;DHT22;18384;48.860;9.188;2023-04-01T13:05:18;12.80;95.60
31819;DHT22;18384;48.860;9.188;2023-04-01T13:08:50;12.70;95.40
31819;DHT22;18384;48.860;9.188;2023-04-01T13:38:05;12.50;96.10
31819;DHT22;18384;48.860;9.188;2023-04-01T13:42:39;12.30;96.70
31819;DHT22;18384;48.860;9.188;2023-04-01T13:45:21;12.40;96.20
31819;DHT22;18384;48.860;9.188;2023-04-01T13:52:06;12.50;96.40
31819;DHT22;18384;48.860;9.188;2023-04-01T14:02:45;12.40;96.00
31819;DHT22;18384;48.860;9.188;2023-04-01T14:19:22;12.50;96.30
31819;DHT22;18384;48.860;9.188;2023-04-01T14:25:50;12.60;96.50
31819;DHT22;18384;48.860;9.188;2023-04-01T14:33:43;12.60;97.10
31819;DHT22;18384;48.860;9.188;2023-04-01T14:38:39;12.70;98.00
31819;DHT22;18384;48.860;9.188;2023-04-01T14:41:20;12.70;97.30
31819;DHT22;18384;48.860;9.188;2023-04-01T14:44:42;12.60;97.30
31819;DHT22;18384;48.860;9.188;2023-04-01T14:47:36;12.50;98.20
31819;DHT22;18384;48.860;9.188;2023-04-01T14:50:24;12.50;98.10
31819;DHT22;18384;48.860;9.188;2023-04-01T14:54:00;12.30;98.70
31819;DHT22;18384;48.860;9.188;2023-04-01T14:57:04;12.30;98.70
31819;DHT22;18384;48.860;9.188;2023-04-01T14:59:40;12.30;98.30
31819;DHT22;18384;48.860;9.188;2023-04-01T15:02:36;12.40;98.60
31819;DHT22;18384;48.860;9.188;2023-04-01T15:08:05;12.40;98.80
31819;DHT22;18384;48.860;9.188;2023-04-01T15:14:16;12.40;97.80
31819;DHT22;18384;48.860;9.188;2023-04-01T15:20:12;12.50;97.60
31819;DHT22;18384;48.860;9.188;2023-04-01T15:23:16;12.60;97.80
31819;DHT22;18384;48.860;9.188;2023-04-01T15:30:22;12.60;97.30
31819;DHT22;18384;48.860;9.188;2023-04-01T15:33:59;12.50;97.70
31819;DHT22;18384;48.860;9.188;2023-04-01T15:36:57;12.50;97.40
31819;DHT22;18384;48.860;9.188;2023-04-01T15:39:54;12.50;97.20
31819;DHT22;18384;48.860;9.188;2023-04-01T16:02:48;12.10;97.50
31819;DHT22;18384;48.860;9.188;2023-04-01T16:22:27;12.00;97.40
31819;DHT22;18384;48.860;9.188;2023-04-01T16:25:26;11.70;97.30
31819;DHT22;18384;48.860;9.188;2023-04-01T16:37:50;11.70;97.50
31819;DHT22;18384;48.860;9.188;2023-04-01T16:41:46;11.70;97.00
31819;DHT22;18384;48.860;9.188;2023-04-01T16:44:57;11.70;96.80
31819;DHT22;18384;48.860;9.188;2023-04-01T16:55:12;11.80;97.30
31819;DHT22;18384;48.860;9.188;2023-04-01T16:57:51;11.80;97.30
31819;DHT22;18384;48.860;9.188;2023-04-01T17:01:40;11.80;97.40
31819;DHT22;18384;48.860;9.188;2023-04-01T17:04:45;11.70;97.60
31819;DHT22;18384;48.860;9.188;2023-04-01T17:15:13;11.80;97.50
31819;DHT22;18384;48.860;9.188;2023-04-01T17:30:52;11.70;97.70
31819;DHT22;18384;48.860;9.188;2023-04-01T17:34:19;11.60;98.00
31819;DHT22;18384;48.860;9.188;2023-04-01T17:39:56;11.60;97.90
31819;DHT22;18384;48.860;9.188;2023-04-01T17:45:56;11.60;97.90
31819;DHT22;18384;48.860;9.188;2023-04-01T17:48:50;11.60;98.00
31819;DHT22;18384;48.860;9.188;2023-04-01T17:54:59;11.60;98.00
31819;DHT22;18384;48.860;9.188;2023-04-01T17:58:07;11.50;98.00
31819;DHT22;18384;48.860;9.188;2023-04-01T18:01:06;11.50;98.50
31819;DHT22;18384;48.860;9.188;2023-04-01T18:22:44;11.10;99.90
31819;DHT22;18384;48.860;9.188;2023-04-01T18:26:02;11.10;99.90
31819;DHT22;18384;48.860;9.188;2023-04-01T18:28:54;11.10;99.90
31819;DHT22;18384;48.860;9.188;2023-04-01T18:31:34;11.00;99.90
31819;DHT22;18384;48.860;9.188;2023-04-01T18:34:17;11.00;99.90
31819;DHT22;18384;48.860;9.188;2023-04-01T18:36:56;10.90;99.90
31819;DHT22;18384;48.860;9.188;2023-04-01T18:42:08;10.90;99.90
31819;DHT22;18384;48.860;9.188;2023-04-01T18:44:56;10.80;99.90
31819;DHT22;18384;48.860;9.188;2023-04-01T18:47:54;10.80;99.90
31819;DHT22;18384;48.860;9.188;2023-04-01T18:54:01;10.80;99.90
31819;DHT22;18384;48.860;9.188;2023-04-01T18:56:41;10.80;99.90
31819;DHT22;18384;48.860;9.188;2023-04-01T19:02:34;10.80;99.90
31819;DHT22;18384;48.860;9.188;2023-04-01T19:08:35;10.80;99.90
31819;DHT22;18384;48.860;9.188;2023-04-01T19:16:59;10.60;99.90
31819;DHT22;18384;48.860;9.188;2023-04-01T19:20:53;10.40;99.90
31819;DHT22;18384;48.860;9.188;2023-04-01T19:27:25;10.20;99.90
31819;DHT22;18384;48.860;9.188;2023-04-01T19:30:32;10.20;99.90
31819;DHT22;18384;48.860;9.188;2023-04-01T19:33:52;10.20;99.90
31819;DHT22;18384;48.860;9.188;2023-04-01T19:36:48;10.20;99.90
31819;DHT22;18384;48.860;9.188;2023-04-01T19:41:36;10.10;99.90
31819;DHT22;18384;48.860;9.188;2023-04-01T19:45:02;10.00;99.90
31819;DHT22;18384;48.860;9.188;2023-04-01T19:52:42;10.00;99.90
31819;DHT22;18384;48.860;9.188;2023-04-01T19:55:38;9.80;99.90
31819;DHT22;18384;48.860;9.188;2023-04-01T19:59:38;9.80;99.90
31819;DHT22;18384;48.860;9.188;2023-04-01T20:03:54;9.80;99.90
31819;DHT22;18384;48.860;9.188;2023-04-01T20:06:44;9.90;99.90
31819;DHT22;18384;48.860;9.188;2023-04-01T20:13:05;9.90;99.90
31819;DHT22;18384;48.860;9.188;2023-04-01T20:16:06;9.90;99.90
31819;DHT22;18384;48.860;9.188;2023-04-01T20:18:46;10.00;99.90
31819;DHT22;18384;48.860;9.188;2023-04-01T20:21:37;10.00;99.90
31819;DHT22;18384;48.860;9.188;2023-04-01T20:24:18;10.10;99.90
31819;DHT22;18384;48.860;9.188;2023-04-01T20:26:59;10.10;99.90
31819;DHT22;18384;48.860;9.188;2023-04-01T20:33:41;10.20;99.90
31819;DHT22;18384;48.860;9.188;2023-04-01T20:49:59;10.30;99.90
31819;DHT22;18384;48.860;9.188;2023-04-01T20:52:42;10.30;99.90
31819;DHT22;18384;48.860;9.188;2023-04-01T21:00:36;10.40;99.90
31819;DHT22;18384;48.860;9.188;2023-04-01T21:03:31;10.40;99.90
31819;DHT22;18384;48.860;9.188;2023-04-01T21:06:56;10.30;99.90
31819;DHT22;18384;48.860;9.188;2023-04-01T21:11:24;10.40;99.90
31819;DHT22;18384;48.860;9.188;2023-04-01T21:16:08;10.40;99.90
31819;DHT22;18384;48.860;9.188;2023-04-01T21:34:25;10.30;99.90
31819;DHT22;18384;48.860;9.188;2023-04-01T21:37:36;10.40;99.90
31819;DHT22;18384;48.860;9.188;2023-04-01T21:40:56;10.40;99.90
31819;DHT22;18384;48.860;9.188;2023-04-01T22:03:03;10.50;99.90
31819;DHT22;18384;48.860;9.188;2023-04-01T22:08:53;10.60;99.90
31819;DHT22;18384;48.860;9.188;2023-04-01T22:15:13;10.60;99.90
31819;DHT22;18384;48.860;9.188;2023-04-01T22:21:38;10.60;99.90
31819;DHT22;18384;48.860;9.188;2023-04-01T22:27:24;10.60;99.90
31819;DHT22;18384;48.860;9.188;2023-04-01T22:30:06;10.70;99.80
31819;DHT22;18384;48.860;9.188;2023-04-01T22:34:10;10.60;99.90
31819;DHT22;18384;48.860;9.188;2023-04-01T22:39:28;10.50;99.90
31819;DHT22;18384;48.860;9.188;2023-04-01T22:46:38;10.50;99.90
31819;DHT22;18384;48.860;9.188;2023-04-01T22:49:53;10.50;99.90
31819;DHT22;18384;48.860;9.188;2023-04-01T22:52:32;10.50;99.90
31819;DHT22;18384;48.860;9.188;2023-04-01T22:55:05;10.50;99.80
31819;DHT22;18384;48.860;9.188;2023-04-01T22:58:16;10.50;99.90
31819;DHT22;18384;48.860;9.188;2023-04-01T23:00:59;10.50;99.80
31819;DHT22;18384;48.860;9.188;2023-04-01T23:03:32;10.50;99.90
31819;DHT22;18384;48.860;9.188;2023-04-01T23:06:02;10.50;99.70
31819;DHT22;18384;48.860;9.188;2023-04-01T23:11:50;10.40;99.90
31819;DHT22;18384;48.860;9.188;2023-04-01T23:14:39;10.40;99.90
31819;DHT22;18384;48.860;9.188;2023-04-01T23:17:31;10.40;99.80
31819;DHT22;18384;48.860;9.188;2023-04-01T23:20:23;9.80;99.70
31819;DHT22;18384;48.860;9.188;2023-04-01T23:23:20;10.30;99.90
31819;DHT22;18384;48.860;9.188;2023-04-01T23:26:24;10.30;99.80
31819;DHT22;18384;48.860;9.188;2023-04-01T23:29:01;10.30;99.80
31819;DHT22;18384;48.860;9.188;2023-04-01T23:31:38;10.40;99.70
31819;DHT22;18384;48.860;9.188;2023-04-01T23:34:38;10.40;99.60
31819;DHT22;18384;48.860;9.188;2023-04-01T23:37:10;10.40;99.60
31819;DHT22;18384;48.860;9.188;2023-04-01T23:39:40;10.30;99.80
31819;DHT22;18384;48.860;9.188;2023-04-01T23:42:24;10.30;99.70
31819;DHT22;18384;48.860;9.188;2023-04-01T23:45:04;10.30;99.80
31819;DHT22;18384;48.860;9.188;2023-04-01T23:47:39;10.40;99.60
31819;DHT22;18384;48.860;9.188;2023-04-01T23:50:21;10.30;99.70
31819;DHT22;18384;48.860;9.188;2023-04-01T23:52:55;10.40;99.70
31819;DHT22;18384;48.860;9.188;2023-04-01T23:55:27;10.30;99.80
31819;DHT22;18384;48.860;9.188;2023-04-01T23:58:13;10.30;99.60
